Terminal Aerodrome Forecast
Issued by NWS Amarillo, TX

Home | Current Version | Previous Version | Text Only | Print | Product List | Glossary On
Versions: 1 2 3 4 5 6 7 8 9 10 11 12 13 14 15 16 17 18 19 20 21 22 23 24 25 26 27 28 29
000
FTUS44 KAMA 310700 CCA
TAFAMA
TAF COR
KAMA 310731Z 3107/0106 02010KT P6SM SCT008 OVC015
      TEMPO 3108/3112 OVC008
     FM311400 03009KT P6SM SCT010 OVC060
     FM311700 04008KT P6SM SCT060 BKN100
     FM010100 13006KT P6SM BKN100=

USA.gov is the U.S. government's official web portal to all federal, state and local government web resources and services.